sensor_id;sensor_type;location;lat;lon;timestamp;P1;durP1;ratioP1;P2;durP2;ratioP2
24305;SDS011;12423;48.768;8.850;2023-01-24T00:02:00;23.05;;;12.00;;
24305;SDS011;12423;48.768;8.850;2023-01-24T00:04:01;23.60;;;12.52;;
24305;SDS011;12423;48.768;8.850;2023-01-24T00:06:02;23.42;;;12.27;;
24305;SDS011;12423;48.768;8.850;2023-01-24T00:08:03;25.50;;;13.65;;
24305;SDS011;12423;48.768;8.850;2023-01-24T00:10:04;23.05;;;12.77;;
24305;SDS011;12423;48.768;8.850;2023-01-24T00:12:06;21.85;;;12.55;;
24305;SDS011;12423;48.768;8.850;2023-01-24T00:14:07;23.25;;;13.43;;
24305;SDS011;12423;48.768;8.850;2023-01-24T00:16:09;23.60;;;13.68;;
24305;SDS011;12423;48.768;8.850;2023-01-24T00:18:12;24.77;;;13.07;;
24305;SDS011;12423;48.768;8.850;2023-01-24T00:20:13;23.42;;;12.70;;
24305;SDS011;12423;48.768;8.850;2023-01-24T00:22:15;23.55;;;11.73;;
24305;SDS011;12423;48.768;8.850;2023-01-24T00:24:15;22.92;;;12.75;;
24305;SDS011;12423;48.768;8.850;2023-01-24T00:26:17;25.75;;;13.10;;
24305;SDS011;12423;48.768;8.850;2023-01-24T00:28:20;25.80;;;12.60;;
24305;SDS011;12423;48.768;8.850;2023-01-24T00:30:21;26.50;;;13.10;;
24305;SDS011;12423;48.768;8.850;2023-01-24T00:32:22;24.70;;;12.27;;
24305;SDS011;12423;48.768;8.850;2023-01-24T00:34:23;23.60;;;12.55;;
24305;SDS011;12423;48.768;8.850;2023-01-24T00:36:24;26.15;;;13.85;;
24305;SDS011;12423;48.768;8.850;2023-01-24T00:38:25;24.27;;;13.15;;
24305;SDS011;12423;48.768;8.850;2023-01-24T00:40:26;24.83;;;13.93;;
24305;SDS011;12423;48.768;8.850;2023-01-24T00:42:27;22.88;;;12.98;;
24305;SDS011;12423;48.768;8.850;2023-01-24T00:44:28;26.63;;;14.07;;
24305;SDS011;12423;48.768;8.850;2023-01-24T00:46:29;23.73;;;13.35;;
24305;SDS011;12423;48.768;8.850;2023-01-24T00:48:30;26.80;;;14.25;;
24305;SDS011;12423;48.768;8.850;2023-01-24T00:50:32;26.92;;;13.88;;
24305;SDS011;12423;48.768;8.850;2023-01-24T00:52:33;26.10;;;13.70;;
24305;SDS011;12423;48.768;8.850;2023-01-24T00:54:34;27.40;;;13.90;;
24305;SDS011;12423;48.768;8.850;2023-01-24T00:56:35;24.98;;;14.07;;
24305;SDS011;12423;48.768;8.850;2023-01-24T00:58:36;28.20;;;13.68;;
24305;SDS011;12423;48.768;8.850;2023-01-24T01:00:37;24.27;;;13.23;;
24305;SDS011;12423;48.768;8.850;2023-01-24T01:02:40;28.30;;;14.27;;
24305;SDS011;12423;48.768;8.850;2023-01-24T01:04:41;26.70;;;13.93;;
24305;SDS011;12423;48.768;8.850;2023-01-24T01:06:43;26.98;;;14.30;;
24305;SDS011;12423;48.768;8.850;2023-01-24T01:08:44;25.98;;;13.73;;
24305;SDS011;12423;48.768;8.850;2023-01-24T01:10:47;26.67;;;13.80;;
24305;SDS011;12423;48.768;8.850;2023-01-24T01:12:48;28.35;;;13.95;;
24305;SDS011;12423;48.768;8.850;2023-01-24T01:14:49;23.73;;;13.00;;
24305;SDS011;12423;48.768;8.850;2023-01-24T01:16:50;23.15;;;12.75;;
24305;SDS011;12423;48.768;8.850;2023-01-24T01:18:53;26.08;;;13.48;;
24305;SDS011;12423;48.768;8.850;2023-01-24T01:20:55;27.85;;;13.75;;
24305;SDS011;12423;48.768;8.850;2023-01-24T01:22:56;26.95;;;14.45;;
24305;SDS011;12423;48.768;8.850;2023-01-24T01:24:57;26.10;;;13.40;;
24305;SDS011;12423;48.768;8.850;2023-01-24T01:26:59;28.90;;;15.15;;
24305;SDS011;12423;48.768;8.850;2023-01-24T01:29:00;28.35;;;14.35;;
24305;SDS011;12423;48.768;8.850;2023-01-24T01:31:01;22.85;;;13.43;;
24305;SDS011;12423;48.768;8.850;2023-01-24T01:33:03;24.73;;;13.68;;
24305;SDS011;12423;48.768;8.850;2023-01-24T01:35:04;26.00;;;14.88;;
24305;SDS011;12423;48.768;8.850;2023-01-24T01:37:05;26.10;;;14.13;;
24305;SDS011;12423;48.768;8.850;2023-01-24T01:39:06;26.60;;;15.30;;
24305;SDS011;12423;48.768;8.850;2023-01-24T01:41:07;25.98;;;13.55;;
24305;SDS011;12423;48.768;8.850;2023-01-24T01:43:12;23.85;;;13.07;;
24305;SDS011;12423;48.768;8.850;2023-01-24T01:47:45;25.10;;;14.43;;
24305;SDS011;12423;48.768;8.850;2023-01-24T01:49:48;26.00;;;13.75;;
24305;SDS011;12423;48.768;8.850;2023-01-24T01:52:03;29.58;;;15.10;;
24305;SDS011;12423;48.768;8.850;2023-01-24T01:54:07;26.75;;;14.35;;
24305;SDS011;12423;48.768;8.850;2023-01-24T01:56:20;26.92;;;14.13;;
24305;SDS011;12423;48.768;8.850;2023-01-24T01:58:26;23.30;;;12.75;;
24305;SDS011;12423;48.768;8.850;2023-01-24T02:00:28;26.70;;;13.90;;
24305;SDS011;12423;48.768;8.850;2023-01-24T02:02:29;27.13;;;13.57;;
24305;SDS011;12423;48.768;8.850;2023-01-24T02:04:33;30.50;;;14.52;;
24305;SDS011;12423;48.768;8.850;2023-01-24T02:06:40;26.67;;;13.40;;
24305;SDS011;12423;48.768;8.850;2023-01-24T02:08:43;26.02;;;13.25;;
24305;SDS011;12423;48.768;8.850;2023-01-24T02:10:45;30.27;;;14.18;;
24305;SDS011;12423;48.768;8.850;2023-01-24T02:13:04;27.92;;;15.10;;
24305;SDS011;12423;48.768;8.850;2023-01-24T02:15:07;26.75;;;14.50;;
24305;SDS011;12423;48.768;8.850;2023-01-24T02:17:29;24.02;;;13.95;;
24305;SDS011;12423;48.768;8.850;2023-01-24T02:21:56;25.52;;;14.10;;
24305;SDS011;12423;48.768;8.850;2023-01-24T02:24:05;27.75;;;14.02;;
24305;SDS011;12423;48.768;8.850;2023-01-24T02:26:21;29.27;;;15.40;;
24305;SDS011;12423;48.768;8.850;2023-01-24T02:28:24;29.05;;;13.65;;
24305;SDS011;12423;48.768;8.850;2023-01-24T02:30:26;27.30;;;14.50;;
24305;SDS011;12423;48.768;8.850;2023-01-24T02:32:28;25.98;;;13.63;;
24305;SDS011;12423;48.768;8.850;2023-01-24T02:34:29;26.00;;;14.30;;
24305;SDS011;12423;48.768;8.850;2023-01-24T02:36:37;24.98;;;14.20;;
24305;SDS011;12423;48.768;8.850;2023-01-24T02:38:38;27.50;;;13.75;;
24305;SDS011;12423;48.768;8.850;2023-01-24T02:40:40;27.42;;;14.38;;
24305;SDS011;12423;48.768;8.850;2023-01-24T02:42:42;34.70;;;15.57;;
24305;SDS011;12423;48.768;8.850;2023-01-24T02:44:48;27.15;;;13.65;;
24305;SDS011;12423;48.768;8.850;2023-01-24T02:46:57;23.98;;;13.60;;
24305;SDS011;12423;48.768;8.850;2023-01-24T02:48:58;25.02;;;14.05;;
24305;SDS011;12423;48.768;8.850;2023-01-24T02:50:59;24.92;;;13.63;;
24305;SDS011;12423;48.768;8.850;2023-01-24T02:53:20;24.48;;;13.63;;
24305;SDS011;12423;48.768;8.850;2023-01-24T02:55:31;28.45;;;14.73;;
24305;SDS011;12423;48.768;8.850;2023-01-24T02:57:33;24.92;;;14.35;;
24305;SDS011;12423;48.768;8.850;2023-01-24T02:59:52;26.25;;;14.00;;
24305;SDS011;12423;48.768;8.850;2023-01-24T03:01:53;33.67;;;15.55;;
24305;SDS011;12423;48.768;8.850;2023-01-24T03:03:54;28.75;;;14.35;;
24305;SDS011;12423;48.768;8.850;2023-01-24T03:05:56;28.55;;;14.13;;
24305;SDS011;12423;48.768;8.850;2023-01-24T03:08:01;27.25;;;13.73;;
24305;SDS011;12423;48.768;8.850;2023-01-24T03:10:02;26.48;;;12.73;;
24305;SDS011;12423;48.768;8.850;2023-01-24T03:12:05;28.58;;;14.27;;
24305;SDS011;12423;48.768;8.850;2023-01-24T03:14:30;25.33;;;13.48;;
24305;SDS011;12423;48.768;8.850;2023-01-24T03:16:49;24.75;;;13.80;;
24305;SDS011;12423;48.768;8.850;2023-01-24T03:19:10;26.98;;;13.65;;
24305;SDS011;12423;48.768;8.850;2023-01-24T03:21:30;25.88;;;13.93;;
24305;SDS011;12423;48.768;8.850;2023-01-24T03:23:50;24.48;;;12.73;;
24305;SDS011;12423;48.768;8.850;2023-01-24T03:26:09;27.60;;;13.90;;
24305;SDS011;12423;48.768;8.850;2023-01-24T03:28:29;29.73;;;14.13;;
24305;SDS011;12423;48.768;8.850;2023-01-24T03:30:48;26.95;;;13.85;;
24305;SDS011;12423;48.768;8.850;2023-01-24T03:33:09;24.77;;;12.88;;
24305;SDS011;12423;48.768;8.850;2023-01-24T03:35:29;25.00;;;13.82;;
24305;SDS011;12423;48.768;8.850;2023-01-24T03:37:30;25.35;;;13.55;;
24305;SDS011;12423;48.768;8.850;2023-01-24T03:39:51;26.02;;;13.43;;
24305;SDS011;12423;48.768;8.850;2023-01-24T03:41:59;27.92;;;14.68;;
24305;SDS011;12423;48.768;8.850;2023-01-24T03:44:00;30.25;;;14.18;;
24305;SDS011;12423;48.768;8.850;2023-01-24T03:46:01;28.02;;;13.98;;
24305;SDS011;12423;48.768;8.850;2023-01-24T03:48:13;27.00;;;14.75;;
24305;SDS011;12423;48.768;8.850;2023-01-24T03:50:14;25.00;;;14.20;;
24305;SDS011;12423;48.768;8.850;2023-01-24T03:52:34;25.92;;;13.65;;
24305;SDS011;12423;48.768;8.850;2023-01-24T03:54:39;26.45;;;13.48;;
24305;SDS011;12423;48.768;8.850;2023-01-24T03:56:42;24.90;;;13.48;;
24305;SDS011;12423;48.768;8.850;2023-01-24T03:58:43;26.23;;;14.05;;
24305;SDS011;12423;48.768;8.850;2023-01-24T04:00:47;25.38;;;13.73;;
24305;SDS011;12423;48.768;8.850;2023-01-24T04:03:08;27.15;;;13.63;;
24305;SDS011;12423;48.768;8.850;2023-01-24T04:05:09;25.73;;;12.73;;
24305;SDS011;12423;48.768;8.850;2023-01-24T04:07:13;29.63;;;13.93;;
24305;SDS011;12423;48.768;8.850;2023-01-24T04:09:14;25.45;;;13.43;;
24305;SDS011;12423;48.768;8.850;2023-01-24T04:11:17;25.73;;;13.80;;
24305;SDS011;12423;48.768;8.850;2023-01-24T04:13:18;27.67;;;13.55;;
24305;SDS011;12423;48.768;8.850;2023-01-24T04:15:21;23.45;;;12.85;;
24305;SDS011;12423;48.768;8.850;2023-01-24T04:17:45;27.13;;;13.38;;
24305;SDS011;12423;48.768;8.850;2023-01-24T04:19:46;25.77;;;13.38;;
24305;SDS011;12423;48.768;8.850;2023-01-24T04:21:47;25.38;;;13.75;;
24305;SDS011;12423;48.768;8.850;2023-01-24T04:23:48;28.67;;;14.25;;
24305;SDS011;12423;48.768;8.850;2023-01-24T04:25:50;29.90;;;14.73;;
24305;SDS011;12423;48.768;8.850;2023-01-24T04:27:56;26.83;;;12.85;;
24305;SDS011;12423;48.768;8.850;2023-01-24T04:30:00;26.83;;;14.25;;
24305;SDS011;12423;48.768;8.850;2023-01-24T04:32:05;23.63;;;11.88;;
24305;SDS011;12423;48.768;8.850;2023-01-24T04:34:14;26.98;;;13.23;;
24305;SDS011;12423;48.768;8.850;2023-01-24T04:36:15;31.55;;;15.63;;
24305;SDS011;12423;48.768;8.850;2023-01-24T04:38:17;25.85;;;12.75;;
24305;SDS011;12423;48.768;8.850;2023-01-24T04:40:33;24.10;;;13.10;;
24305;SDS011;12423;48.768;8.850;2023-01-24T04:42:36;29.67;;;14.82;;
24305;SDS011;12423;48.768;8.850;2023-01-24T04:44:39;28.73;;;12.77;;
24305;SDS011;12423;48.768;8.850;2023-01-24T04:46:43;28.88;;;15.18;;
24305;SDS011;12423;48.768;8.850;2023-01-24T04:48:45;26.38;;;14.18;;
24305;SDS011;12423;48.768;8.850;2023-01-24T04:50:46;29.15;;;15.02;;
24305;SDS011;12423;48.768;8.850;2023-01-24T04:52:47;28.42;;;13.50;;
24305;SDS011;12423;48.768;8.850;2023-01-24T04:54:48;30.58;;;14.63;;
24305;SDS011;12423;48.768;8.850;2023-01-24T04:56:50;32.90;;;14.45;;
24305;SDS011;12423;48.768;8.850;2023-01-24T04:58:52;25.95;;;13.75;;
24305;SDS011;12423;48.768;8.850;2023-01-24T05:00:53;27.67;;;13.93;;
24305;SDS011;12423;48.768;8.850;2023-01-24T05:02:54;24.77;;;13.23;;
24305;SDS011;12423;48.768;8.850;2023-01-24T05:04:56;29.58;;;13.82;;
24305;SDS011;12423;48.768;8.850;2023-01-24T05:06:58;30.27;;;14.80;;
24305;SDS011;12423;48.768;8.850;2023-01-24T05:09:00;30.15;;;14.27;;
24305;SDS011;12423;48.768;8.850;2023-01-24T05:11:16;30.45;;;14.43;;
24305;SDS011;12423;48.768;8.850;2023-01-24T05:13:22;30.42;;;15.32;;
24305;SDS011;12423;48.768;8.850;2023-01-24T05:15:23;31.02;;;15.27;;
24305;SDS011;12423;48.768;8.850;2023-01-24T05:17:25;30.15;;;15.05;;
24305;SDS011;12423;48.768;8.850;2023-01-24T05:19:29;32.08;;;15.95;;
24305;SDS011;12423;48.768;8.850;2023-01-24T05:21:30;29.13;;;14.88;;
24305;SDS011;12423;48.768;8.850;2023-01-24T05:23:31;30.05;;;14.77;;
24305;SDS011;12423;48.768;8.850;2023-01-24T05:25:32;32.00;;;15.88;;
24305;SDS011;12423;48.768;8.850;2023-01-24T05:27:34;30.45;;;13.95;;
24305;SDS011;12423;48.768;8.850;2023-01-24T05:29:37;31.50;;;15.02;;
24305;SDS011;12423;48.768;8.850;2023-01-24T05:31:38;28.25;;;15.43;;
24305;SDS011;12423;48.768;8.850;2023-01-24T05:33:39;31.50;;;15.55;;
24305;SDS011;12423;48.768;8.850;2023-01-24T05:35:41;27.08;;;14.25;;
24305;SDS011;12423;48.768;8.850;2023-01-24T05:37:45;27.63;;;14.70;;
24305;SDS011;12423;48.768;8.850;2023-01-24T05:39:48;30.27;;;15.10;;
24305;SDS011;12423;48.768;8.850;2023-01-24T05:41:49;27.08;;;14.52;;
24305;SDS011;12423;48.768;8.850;2023-01-24T05:43:53;27.50;;;14.45;;
24305;SDS011;12423;48.768;8.850;2023-01-24T05:46:00;28.08;;;13.77;;
24305;SDS011;12423;48.768;8.850;2023-01-24T05:48:07;31.10;;;14.98;;
24305;SDS011;12423;48.768;8.850;2023-01-24T05:50:08;31.58;;;15.80;;
24305;SDS011;12423;48.768;8.850;2023-01-24T05:52:09;30.98;;;15.63;;
24305;SDS011;12423;48.768;8.850;2023-01-24T05:54:22;30.00;;;14.40;;
24305;SDS011;12423;48.768;8.850;2023-01-24T05:56:45;33.67;;;15.20;;
24305;SDS011;12423;48.768;8.850;2023-01-24T05:58:47;33.75;;;16.15;;
24305;SDS011;12423;48.768;8.850;2023-01-24T06:00:50;30.77;;;15.93;;
24305;SDS011;12423;48.768;8.850;2023-01-24T06:03:03;32.17;;;16.30;;
24305;SDS011;12423;48.768;8.850;2023-01-24T06:05:04;35.85;;;16.90;;
24305;SDS011;12423;48.768;8.850;2023-01-24T06:07:05;34.38;;;16.98;;
24305;SDS011;12423;48.768;8.850;2023-01-24T06:09:07;39.90;;;17.20;;
24305;SDS011;12423;48.768;8.850;2023-01-24T06:11:13;31.73;;;15.88;;
24305;SDS011;12423;48.768;8.850;2023-01-24T06:13:16;32.15;;;15.65;;
24305;SDS011;12423;48.768;8.850;2023-01-24T06:15:17;31.35;;;15.82;;
24305;SDS011;12423;48.768;8.850;2023-01-24T06:17:18;35.45;;;15.80;;
24305;SDS011;12423;48.768;8.850;2023-01-24T06:19:19;31.52;;;15.63;;
24305;SDS011;12423;48.768;8.850;2023-01-24T06:23:40;35.75;;;16.77;;
24305;SDS011;12423;48.768;8.850;2023-01-24T06:25:42;34.05;;;15.93;;
24305;SDS011;12423;48.768;8.850;2023-01-24T06:27:43;30.13;;;15.75;;
24305;SDS011;12423;48.768;8.850;2023-01-24T06:29:44;31.98;;;15.90;;
24305;SDS011;12423;48.768;8.850;2023-01-24T06:38:28;32.50;;;15.93;;
24305;SDS011;12423;48.768;8.850;2023-01-24T06:40:29;30.77;;;15.43;;
24305;SDS011;12423;48.768;8.850;2023-01-24T06:42:31;34.17;;;17.08;;
24305;SDS011;12423;48.768;8.850;2023-01-24T06:44:32;29.02;;;14.63;;
24305;SDS011;12423;48.768;8.850;2023-01-24T06:46:33;36.85;;;15.55;;
24305;SDS011;12423;48.768;8.850;2023-01-24T06:48:34;32.78;;;15.57;;
24305;SDS011;12423;48.768;8.850;2023-01-24T06:50:35;38.33;;;17.45;;
24305;SDS011;12423;48.768;8.850;2023-01-24T06:52:36;31.70;;;16.88;;
24305;SDS011;12423;48.768;8.850;2023-01-24T06:54:37;33.75;;;16.63;;
24305;SDS011;12423;48.768;8.850;2023-01-24T06:56:38;31.75;;;15.77;;
24305;SDS011;12423;48.768;8.850;2023-01-24T06:58:39;29.08;;;14.90;;
24305;SDS011;12423;48.768;8.850;2023-01-24T07:00:40;30.50;;;14.25;;
24305;SDS011;12423;48.768;8.850;2023-01-24T07:02:41;34.67;;;16.95;;
24305;SDS011;12423;48.768;8.850;2023-01-24T07:04:42;32.22;;;15.57;;
24305;SDS011;12423;48.768;8.850;2023-01-24T07:06:43;30.08;;;15.98;;
24305;SDS011;12423;48.768;8.850;2023-01-24T07:08:44;32.65;;;16.70;;
24305;SDS011;12423;48.768;8.850;2023-01-24T07:10:45;35.38;;;16.60;;
24305;SDS011;12423;48.768;8.850;2023-01-24T07:12:46;32.15;;;15.20;;
24305;SDS011;12423;48.768;8.850;2023-01-24T07:14:48;33.83;;;16.38;;
24305;SDS011;12423;48.768;8.850;2023-01-24T07:16:49;33.58;;;16.38;;
24305;SDS011;12423;48.768;8.850;2023-01-24T07:18:51;30.55;;;15.73;;
24305;SDS011;12423;48.768;8.850;2023-01-24T07:20:53;32.88;;;16.90;;
24305;SDS011;12423;48.768;8.850;2023-01-24T07:22:54;36.85;;;16.45;;
24305;SDS011;12423;48.768;8.850;2023-01-24T07:24:56;34.67;;;18.05;;
24305;SDS011;12423;48.768;8.850;2023-01-24T07:26:57;41.80;;;18.95;;
24305;SDS011;12423;48.768;8.850;2023-01-24T07:28:59;37.97;;;17.98;;
24305;SDS011;12423;48.768;8.850;2023-01-24T07:31:00;35.95;;;16.60;;
24305;SDS011;12423;48.768;8.850;2023-01-24T07:33:01;38.72;;;16.98;;
24305;SDS011;12423;48.768;8.850;2023-01-24T07:35:02;34.17;;;17.67;;
24305;SDS011;12423;48.768;8.850;2023-01-24T07:37:05;31.33;;;16.08;;
24305;SDS011;12423;48.768;8.850;2023-01-24T07:39:07;33.58;;;15.60;;
24305;SDS011;12423;48.768;8.850;2023-01-24T07:41:08;32.22;;;16.65;;
24305;SDS011;12423;48.768;8.850;2023-01-24T07:43:10;31.55;;;14.95;;
24305;SDS011;12423;48.768;8.850;2023-01-24T07:45:12;36.50;;;17.10;;
24305;SDS011;12423;48.768;8.850;2023-01-24T07:47:12;30.30;;;16.25;;
24305;SDS011;12423;48.768;8.850;2023-01-24T07:49:13;40.83;;;18.45;;
24305;SDS011;12423;48.768;8.850;2023-01-24T07:51:15;30.83;;;15.55;;
24305;SDS011;12423;48.768;8.850;2023-01-24T07:53:16;32.10;;;15.32;;
24305;SDS011;12423;48.768;8.850;2023-01-24T07:55:17;32.22;;;15.73;;
24305;SDS011;12423;48.768;8.850;2023-01-24T07:57:18;33.42;;;15.43;;
24305;SDS011;12423;48.768;8.850;2023-01-24T07:59:19;28.75;;;15.68;;
24305;SDS011;12423;48.768;8.850;2023-01-24T08:01:21;30.25;;;16.27;;
24305;SDS011;12423;48.768;8.850;2023-01-24T08:03:23;28.17;;;15.40;;
24305;SDS011;12423;48.768;8.850;2023-01-24T08:05:24;29.90;;;15.25;;
24305;SDS011;12423;48.768;8.850;2023-01-24T08:07:25;29.30;;;14.95;;
24305;SDS011;12423;48.768;8.850;2023-01-24T08:09:27;29.52;;;15.05;;
24305;SDS011;12423;48.768;8.850;2023-01-24T08:11:28;34.47;;;16.48;;
24305;SDS011;12423;48.768;8.850;2023-01-24T08:13:29;32.90;;;16.75;;
24305;SDS011;12423;48.768;8.850;2023-01-24T08:15:30;35.65;;;15.98;;
24305;SDS011;12423;48.768;8.850;2023-01-24T08:17:31;33.20;;;16.42;;
24305;SDS011;12423;48.768;8.850;2023-01-24T08:19:32;33.63;;;15.45;;
24305;SDS011;12423;48.768;8.850;2023-01-24T08:21:33;32.15;;;15.15;;
24305;SDS011;12423;48.768;8.850;2023-01-24T08:23:34;37.50;;;17.75;;
24305;SDS011;12423;48.768;8.850;2023-01-24T08:25:35;39.33;;;17.55;;
24305;SDS011;12423;48.768;8.850;2023-01-24T08:27:39;33.53;;;16.48;;
24305;SDS011;12423;48.768;8.850;2023-01-24T08:29:40;30.85;;;15.68;;
24305;SDS011;12423;48.768;8.850;2023-01-24T08:31:41;29.77;;;14.05;;
24305;SDS011;12423;48.768;8.850;2023-01-24T08:33:42;30.40;;;14.48;;
24305;SDS011;12423;48.768;8.850;2023-01-24T08:35:43;29.30;;;15.07;;
24305;SDS011;12423;48.768;8.850;2023-01-24T08:37:45;28.90;;;15.13;;
24305;SDS011;12423;48.768;8.850;2023-01-24T08:39:46;31.95;;;16.02;;
24305;SDS011;12423;48.768;8.850;2023-01-24T08:41:47;35.90;;;16.15;;
24305;SDS011;12423;48.768;8.850;2023-01-24T08:43:51;31.65;;;14.93;;
24305;SDS011;12423;48.768;8.850;2023-01-24T08:45:55;29.35;;;15.07;;
24305;SDS011;12423;48.768;8.850;2023-01-24T08:47:56;30.70;;;14.60;;
24305;SDS011;12423;48.768;8.850;2023-01-24T08:49:57;28.35;;;14.05;;
24305;SDS011;12423;48.768;8.850;2023-01-24T08:51:58;28.52;;;15.10;;
24305;SDS011;12423;48.768;8.850;2023-01-24T08:53:59;34.85;;;16.38;;
24305;SDS011;12423;48.768;8.850;2023-01-24T08:56:00;30.20;;;15.15;;
24305;SDS011;12423;48.768;8.850;2023-01-24T08:58:01;34.25;;;15.63;;
24305;SDS011;12423;48.768;8.850;2023-01-24T09:00:04;33.72;;;15.07;;
24305;SDS011;12423;48.768;8.850;2023-01-24T09:02:06;28.00;;;15.05;;
24305;SDS011;12423;48.768;8.850;2023-01-24T09:04:07;34.40;;;15.45;;
24305;SDS011;12423;48.768;8.850;2023-01-24T09:06:09;29.92;;;15.52;;
24305;SDS011;12423;48.768;8.850;2023-01-24T09:08:10;27.70;;;14.80;;
24305;SDS011;12423;48.768;8.850;2023-01-24T09:10:12;31.50;;;15.80;;
24305;SDS011;12423;48.768;8.850;2023-01-24T09:12:13;29.88;;;14.63;;
24305;SDS011;12423;48.768;8.850;2023-01-24T09:14:14;31.60;;;14.82;;
24305;SDS011;12423;48.768;8.850;2023-01-24T09:16:15;33.65;;;15.77;;
24305;SDS011;12423;48.768;8.850;2023-01-24T09:18:16;30.10;;;14.75;;
24305;SDS011;12423;48.768;8.850;2023-01-24T09:20:17;31.08;;;14.32;;
24305;SDS011;12423;48.768;8.850;2023-01-24T09:22:19;32.78;;;15.77;;
24305;SDS011;12423;48.768;8.850;2023-01-24T09:24:20;34.03;;;15.63;;
24305;SDS011;12423;48.768;8.850;2023-01-24T09:26:21;33.90;;;15.02;;
24305;SDS011;12423;48.768;8.850;2023-01-24T09:28:22;33.05;;;16.40;;
24305;SDS011;12423;48.768;8.850;2023-01-24T09:30:23;30.45;;;16.15;;
24305;SDS011;12423;48.768;8.850;2023-01-24T09:32:24;30.17;;;14.40;;
24305;SDS011;12423;48.768;8.850;2023-01-24T09:34:25;34.08;;;15.82;;
24305;SDS011;12423;48.768;8.850;2023-01-24T09:36:26;36.33;;;16.27;;
24305;SDS011;12423;48.768;8.850;2023-01-24T09:38:29;32.70;;;15.50;;
24305;SDS011;12423;48.768;8.850;2023-01-24T09:40:40;36.10;;;16.08;;
24305;SDS011;12423;48.768;8.850;2023-01-24T09:43:31;32.80;;;16.45;;
24305;SDS011;12423;48.768;8.850;2023-01-24T09:47:58;28.42;;;14.65;;
24305;SDS011;12423;48.768;8.850;2023-01-24T09:50:02;26.95;;;13.98;;
24305;SDS011;12423;48.768;8.850;2023-01-24T09:52:06;34.17;;;15.18;;
24305;SDS011;12423;48.768;8.850;2023-01-24T09:54:15;35.25;;;16.27;;
24305;SDS011;12423;48.768;8.850;2023-01-24T09:56:24;28.80;;;14.32;;
24305;SDS011;12423;48.768;8.850;2023-01-24T09:58:35;36.08;;;17.60;;
24305;SDS011;12423;48.768;8.850;2023-01-24T10:00:40;28.60;;;14.68;;
24305;SDS011;12423;48.768;8.850;2023-01-24T10:02:41;31.42;;;16.20;;
24305;SDS011;12423;48.768;8.850;2023-01-24T10:04:43;39.83;;;17.70;;
24305;SDS011;12423;48.768;8.850;2023-01-24T10:06:55;27.45;;;14.90;;
24305;SDS011;12423;48.768;8.850;2023-01-24T10:09:11;30.95;;;15.38;;
24305;SDS011;12423;48.768;8.850;2023-01-24T10:11:27;45.05;;;18.42;;
24305;SDS011;12423;48.768;8.850;2023-01-24T10:16:35;32.92;;;14.77;;
24305;SDS011;12423;48.768;8.850;2023-01-24T10:22:08;40.00;;;17.58;;
24305;SDS011;12423;48.768;8.850;2023-01-24T10:24:07;35.17;;;15.40;;
24305;SDS011;12423;48.768;8.850;2023-01-24T10:28:22;37.20;;;15.45;;
24305;SDS011;12423;48.768;8.850;2023-01-24T10:30:40;55.95;;;17.83;;
24305;SDS011;12423;48.768;8.850;2023-01-24T10:32:46;60.50;;;20.70;;
24305;SDS011;12423;48.768;8.850;2023-01-24T10:34:55;28.33;;;13.63;;
24305;SDS011;12423;48.768;8.850;2023-01-24T10:39:09;23.48;;;12.10;;
24305;SDS011;12423;48.768;8.850;2023-01-24T10:41:18;27.77;;;14.00;;
24305;SDS011;12423;48.768;8.850;2023-01-24T10:43:23;30.58;;;14.40;;
24305;SDS011;12423;48.768;8.850;2023-01-24T10:49:52;35.38;;;16.08;;
24305;SDS011;12423;48.768;8.850;2023-01-24T10:52:09;45.95;;;17.88;;
24305;SDS011;12423;48.768;8.850;2023-01-24T10:54:19;30.58;;;15.23;;
24305;SDS011;12423;48.768;8.850;2023-01-24T10:56:23;36.38;;;16.05;;
24305;SDS011;12423;48.768;8.850;2023-01-24T10:58:25;26.25;;;13.27;;
24305;SDS011;12423;48.768;8.850;2023-01-24T11:00:32;24.20;;;12.77;;
24305;SDS011;12423;48.768;8.850;2023-01-24T11:02:41;34.13;;;14.57;;
24305;SDS011;12423;48.768;8.850;2023-01-24T11:04:42;24.98;;;13.23;;
24305;SDS011;12423;48.768;8.850;2023-01-24T11:06:45;28.75;;;13.73;;
24305;SDS011;12423;48.768;8.850;2023-01-24T11:08:47;27.73;;;15.25;;
24305;SDS011;12423;48.768;8.850;2023-01-24T11:10:55;26.42;;;14.27;;
24305;SDS011;12423;48.768;8.850;2023-01-24T11:12:59;26.73;;;13.73;;
24305;SDS011;12423;48.768;8.850;2023-01-24T11:15:02;28.90;;;14.48;;
24305;SDS011;12423;48.768;8.850;2023-01-24T11:17:03;25.23;;;13.88;;
24305;SDS011;12423;48.768;8.850;2023-01-24T11:19:20;29.05;;;14.77;;
24305;SDS011;12423;48.768;8.850;2023-01-24T11:21:23;29.95;;;14.55;;
24305;SDS011;12423;48.768;8.850;2023-01-24T11:23:24;34.08;;;15.63;;
24305;SDS011;12423;48.768;8.850;2023-01-24T11:25:27;26.20;;;13.85;;
24305;SDS011;12423;48.768;8.850;2023-01-24T11:27:28;36.10;;;16.52;;
24305;SDS011;12423;48.768;8.850;2023-01-24T11:29:30;29.90;;;14.23;;
24305;SDS011;12423;48.768;8.850;2023-01-24T11:31:36;33.20;;;14.85;;
24305;SDS011;12423;48.768;8.850;2023-01-24T11:38:41;21.17;;;11.10;;
24305;SDS011;12423;48.768;8.850;2023-01-24T11:40:45;24.48;;;12.38;;
24305;SDS011;12423;48.768;8.850;2023-01-24T11:47:28;53.50;;;18.63;;
24305;SDS011;12423;48.768;8.850;2023-01-24T11:51:54;26.30;;;12.95;;
24305;SDS011;12423;48.768;8.850;2023-01-24T11:58:47;25.35;;;13.82;;
24305;SDS011;12423;48.768;8.850;2023-01-24T12:01:21;24.65;;;12.70;;
24305;SDS011;12423;48.768;8.850;2023-01-24T12:10:59;29.05;;;14.77;;
24305;SDS011;12423;48.768;8.850;2023-01-24T12:13:08;26.33;;;13.57;;
24305;SDS011;12423;48.768;8.850;2023-01-24T12:15:22;20.75;;;11.77;;
24305;SDS011;12423;48.768;8.850;2023-01-24T12:19:49;21.20;;;11.55;;
24305;SDS011;12423;48.768;8.850;2023-01-24T12:24:45;29.00;;;13.60;;
24305;SDS011;12423;48.768;8.850;2023-01-24T12:26:44;23.40;;;11.18;;
24305;SDS011;12423;48.768;8.850;2023-01-24T12:28:57;31.70;;;16.05;;
24305;SDS011;12423;48.768;8.850;2023-01-24T12:31:00;25.10;;;12.38;;
24305;SDS011;12423;48.768;8.850;2023-01-24T12:33:05;26.17;;;12.90;;
24305;SDS011;12423;48.768;8.850;2023-01-24T12:37:26;21.02;;;11.23;;
24305;SDS011;12423;48.768;8.850;2023-01-24T12:39:43;22.65;;;11.30;;
24305;SDS011;12423;48.768;8.850;2023-01-24T12:41:51;24.88;;;12.13;;
24305;SDS011;12423;48.768;8.850;2023-01-24T12:44:12;25.70;;;12.90;;
24305;SDS011;12423;48.768;8.850;2023-01-24T12:46:29;20.58;;;11.13;;
24305;SDS011;12423;48.768;8.850;2023-01-24T12:48:44;26.30;;;11.90;;
24305;SDS011;12423;48.768;8.850;2023-01-24T12:50:52;22.77;;;11.50;;
24305;SDS011;12423;48.768;8.850;2023-01-24T12:53:21;26.83;;;13.13;;
24305;SDS011;12423;48.768;8.850;2023-01-24T12:57:38;21.48;;;10.30;;
24305;SDS011;12423;48.768;8.850;2023-01-24T12:59:44;27.52;;;12.48;;
24305;SDS011;12423;48.768;8.850;2023-01-24T13:13:14;19.08;;;11.95;;
24305;SDS011;12423;48.768;8.850;2023-01-24T13:15:22;31.70;;;15.98;;
24305;SDS011;12423;48.768;8.850;2023-01-24T13:24:37;20.60;;;11.68;;
24305;SDS011;12423;48.768;8.850;2023-01-24T13:29:25;18.27;;;10.02;;
24305;SDS011;12423;48.768;8.850;2023-01-24T13:35:54;17.10;;;10.30;;
24305;SDS011;12423;48.768;8.850;2023-01-24T13:38:02;20.00;;;10.90;;
24305;SDS011;12423;48.768;8.850;2023-01-24T13:42:22;17.55;;;9.88;;